sensor_id;sensor_type;location;lat;lon;timestamp;temperature;humidity
23873;DHT22;42884;50.718;4.630;2024-01-30T00:01:01;11.20;99.90
23873;DHT22;42884;50.718;4.630;2024-01-30T00:03:27;11.30;99.90
23873;DHT22;42884;50.718;4.630;2024-01-30T00:05:53;11.30;99.90
23873;DHT22;42884;50.718;4.630;2024-01-30T00:08:19;11.20;99.90
23873;DHT22;42884;50.718;4.630;2024-01-30T00:10:44;11.20;99.90
23873;DHT22;42884;50.718;4.630;2024-01-30T00:13:10;11.10;99.90
23873;DHT22;42884;50.718;4.630;2024-01-30T00:15:35;11.00;99.90
23873;DHT22;42884;50.718;4.630;2024-01-30T00:18:01;11.00;99.90
23873;DHT22;42884;50.718;4.630;2024-01-30T00:20:26;10.90;99.90
23873;DHT22;42884;50.718;4.630;2024-01-30T00:22:52;10.90;99.90
23873;DHT22;42884;50.718;4.630;2024-01-30T00:25:18;10.90;99.90
23873;DHT22;42884;50.718;4.630;2024-01-30T00:27:43;10.80;99.90
23873;DHT22;42884;50.718;4.630;2024-01-30T00:30:09;10.80;99.90
23873;DHT22;42884;50.718;4.630;2024-01-30T00:32:35;10.70;99.90
23873;DHT22;42884;50.718;4.630;2024-01-30T00:35:00;10.70;99.90
23873;DHT22;42884;50.718;4.630;2024-01-30T00:37:26;10.70;99.90
23873;DHT22;42884;50.718;4.630;2024-01-30T00:39:51;10.80;99.90
23873;DHT22;42884;50.718;4.630;2024-01-30T00:42:17;10.90;99.90
23873;DHT22;42884;50.718;4.630;2024-01-30T00:44:43;10.90;99.90
23873;DHT22;42884;50.718;4.630;2024-01-30T00:47:08;10.90;99.90
23873;DHT22;42884;50.718;4.630;2024-01-30T00:49:34;10.90;99.90
23873;DHT22;42884;50.718;4.630;2024-01-30T00:51:59;11.00;99.90
23873;DHT22;42884;50.718;4.630;2024-01-30T00:54:25;11.00;99.90
23873;DHT22;42884;50.718;4.630;2024-01-30T00:56:51;11.00;99.90
23873;DHT22;42884;50.718;4.630;2024-01-30T00:59:16;11.10;99.90
23873;DHT22;42884;50.718;4.630;2024-01-30T01:01:42;11.10;99.90
23873;DHT22;42884;50.718;4.630;2024-01-30T01:04:08;11.10;99.90
23873;DHT22;42884;50.718;4.630;2024-01-30T01:06:33;11.20;99.90
23873;DHT22;42884;50.718;4.630;2024-01-30T01:08:59;11.20;99.90
23873;DHT22;42884;50.718;4.630;2024-01-30T01:11:24;11.30;99.90
23873;DHT22;42884;50.718;4.630;2024-01-30T01:13:50;11.20;99.90
23873;DHT22;42884;50.718;4.630;2024-01-30T01:16:16;11.20;99.90
23873;DHT22;42884;50.718;4.630;2024-01-30T01:18:41;11.20;99.90
23873;DHT22;42884;50.718;4.630;2024-01-30T01:21:07;11.10;99.90
23873;DHT22;42884;50.718;4.630;2024-01-30T01:23:32;11.30;99.90
23873;DHT22;42884;50.718;4.630;2024-01-30T01:25:58;11.30;99.90
23873;DHT22;42884;50.718;4.630;2024-01-30T01:28:25;11.20;99.90
23873;DHT22;42884;50.718;4.630;2024-01-30T01:30:50;11.30;99.90
23873;DHT22;42884;50.718;4.630;2024-01-30T01:33:16;11.30;99.90
23873;DHT22;42884;50.718;4.630;2024-01-30T01:35:42;11.30;99.90
23873;DHT22;42884;50.718;4.630;2024-01-30T01:38:08;11.30;99.90
23873;DHT22;42884;50.718;4.630;2024-01-30T01:40:34;11.30;99.90
23873;DHT22;42884;50.718;4.630;2024-01-30T01:43:02;11.40;99.90
23873;DHT22;42884;50.718;4.630;2024-01-30T01:45:28;11.30;99.90
23873;DHT22;42884;50.718;4.630;2024-01-30T01:47:54;11.40;99.90
23873;DHT22;42884;50.718;4.630;2024-01-30T01:50:22;11.30;99.90
23873;DHT22;42884;50.718;4.630;2024-01-30T01:52:49;11.40;99.90
23873;DHT22;42884;50.718;4.630;2024-01-30T01:55:15;11.30;99.90
23873;DHT22;42884;50.718;4.630;2024-01-30T01:57:42;11.30;99.90
23873;DHT22;42884;50.718;4.630;2024-01-30T02:00:08;11.30;99.90
23873;DHT22;42884;50.718;4.630;2024-01-30T02:02:36;11.30;99.90
23873;DHT22;42884;50.718;4.630;2024-01-30T02:05:01;11.30;99.90
23873;DHT22;42884;50.718;4.630;2024-01-30T02:07:27;11.30;99.90
23873;DHT22;42884;50.718;4.630;2024-01-30T02:09:53;11.20;99.90
23873;DHT22;42884;50.718;4.630;2024-01-30T02:12:19;11.20;99.90
23873;DHT22;42884;50.718;4.630;2024-01-30T02:14:48;11.10;99.90
23873;DHT22;42884;50.718;4.630;2024-01-30T02:17:15;11.20;99.90
23873;DHT22;42884;50.718;4.630;2024-01-30T02:19:41;11.10;99.90
23873;DHT22;42884;50.718;4.630;2024-01-30T02:22:06;11.00;99.90
23873;DHT22;42884;50.718;4.630;2024-01-30T02:24:32;10.90;99.90
23873;DHT22;42884;50.718;4.630;2024-01-30T02:26:58;10.90;99.90
23873;DHT22;42884;50.718;4.630;2024-01-30T02:29:24;10.80;99.90
23873;DHT22;42884;50.718;4.630;2024-01-30T02:31:49;10.80;99.90
23873;DHT22;42884;50.718;4.630;2024-01-30T02:34:15;10.80;99.90
23873;DHT22;42884;50.718;4.630;2024-01-30T02:36:44;10.80;99.90
23873;DHT22;42884;50.718;4.630;2024-01-30T02:39:09;10.70;99.90
23873;DHT22;42884;50.718;4.630;2024-01-30T02:41:35;10.70;99.90
23873;DHT22;42884;50.718;4.630;2024-01-30T02:44:01;10.60;99.90
23873;DHT22;42884;50.718;4.630;2024-01-30T02:46:27;10.50;99.90
23873;DHT22;42884;50.718;4.630;2024-01-30T02:48:52;10.50;99.90
23873;DHT22;42884;50.718;4.630;2024-01-30T02:51:18;10.50;99.90
23873;DHT22;42884;50.718;4.630;2024-01-30T02:53:44;10.40;99.90
23873;DHT22;42884;50.718;4.630;2024-01-30T02:56:09;10.40;99.90
23873;DHT22;42884;50.718;4.630;2024-01-30T02:58:35;10.40;99.90
23873;DHT22;42884;50.718;4.630;2024-01-30T03:01:02;10.40;99.90
23873;DHT22;42884;50.718;4.630;2024-01-30T03:03:27;10.50;99.90
23873;DHT22;42884;50.718;4.630;2024-01-30T03:05:53;10.40;99.90
23873;DHT22;42884;50.718;4.630;2024-01-30T03:08:18;10.40;99.90
23873;DHT22;42884;50.718;4.630;2024-01-30T03:10:44;10.40;99.90
23873;DHT22;42884;50.718;4.630;2024-01-30T03:13:09;10.50;99.90
23873;DHT22;42884;50.718;4.630;2024-01-30T03:15:35;10.60;99.90
23873;DHT22;42884;50.718;4.630;2024-01-30T03:18:01;10.70;99.90
23873;DHT22;42884;50.718;4.630;2024-01-30T03:20:29;10.80;99.90
23873;DHT22;42884;50.718;4.630;2024-01-30T03:22:55;10.80;99.90
23873;DHT22;42884;50.718;4.630;2024-01-30T03:25:20;10.80;99.90
23873;DHT22;42884;50.718;4.630;2024-01-30T03:27:46;10.90;99.90
23873;DHT22;42884;50.718;4.630;2024-01-30T03:30:12;10.90;99.90
23873;DHT22;42884;50.718;4.630;2024-01-30T03:32:37;10.90;99.90
23873;DHT22;42884;50.718;4.630;2024-01-30T03:35:03;11.00;99.90
23873;DHT22;42884;50.718;4.630;2024-01-30T03:37:29;11.10;99.90
23873;DHT22;42884;50.718;4.630;2024-01-30T03:39:55;11.10;99.90
23873;DHT22;42884;50.718;4.630;2024-01-30T03:42:20;11.10;99.90
23873;DHT22;42884;50.718;4.630;2024-01-30T03:44:46;11.20;99.90
23873;DHT22;42884;50.718;4.630;2024-01-30T03:47:11;11.20;99.90
23873;DHT22;42884;50.718;4.630;2024-01-30T03:49:37;11.10;99.90
23873;DHT22;42884;50.718;4.630;2024-01-30T03:52:03;11.10;99.90
23873;DHT22;42884;50.718;4.630;2024-01-30T03:54:29;11.10;99.90
23873;DHT22;42884;50.718;4.630;2024-01-30T03:56:54;11.20;99.90
23873;DHT22;42884;50.718;4.630;2024-01-30T03:59:20;11.20;99.90
23873;DHT22;42884;50.718;4.630;2024-01-30T04:01:50;11.30;99.90
23873;DHT22;42884;50.718;4.630;2024-01-30T04:04:17;11.10;99.90
23873;DHT22;42884;50.718;4.630;2024-01-30T04:06:43;11.30;99.90
23873;DHT22;42884;50.718;4.630;2024-01-30T04:09:09;11.30;99.90
23873;DHT22;42884;50.718;4.630;2024-01-30T04:11:34;11.30;99.90
23873;DHT22;42884;50.718;4.630;2024-01-30T04:14:00;11.40;99.90
23873;DHT22;42884;50.718;4.630;2024-01-30T04:16:26;11.40;99.90
23873;DHT22;42884;50.718;4.630;2024-01-30T04:18:51;11.40;99.90
23873;DHT22;42884;50.718;4.630;2024-01-30T04:21:17;11.40;99.90
23873;DHT22;42884;50.718;4.630;2024-01-30T04:23:43;11.30;99.90
23873;DHT22;42884;50.718;4.630;2024-01-30T04:26:08;11.40;99.90
23873;DHT22;42884;50.718;4.630;2024-01-30T04:28:34;11.30;99.90
23873;DHT22;42884;50.718;4.630;2024-01-30T04:30:59;11.40;99.90
23873;DHT22;42884;50.718;4.630;2024-01-30T04:33:25;11.50;99.90
23873;DHT22;42884;50.718;4.630;2024-01-30T04:35:51;11.40;99.90
23873;DHT22;42884;50.718;4.630;2024-01-30T04:38:17;11.40;99.90
23873;DHT22;42884;50.718;4.630;2024-01-30T04:40:43;11.40;99.90
23873;DHT22;42884;50.718;4.630;2024-01-30T04:43:08;11.40;99.90
23873;DHT22;42884;50.718;4.630;2024-01-30T04:45:34;11.40;99.90
23873;DHT22;42884;50.718;4.630;2024-01-30T04:47:59;11.50;99.90
23873;DHT22;42884;50.718;4.630;2024-01-30T04:50:25;11.50;99.90
23873;DHT22;42884;50.718;4.630;2024-01-30T04:52:52;11.60;99.90
23873;DHT22;42884;50.718;4.630;2024-01-30T04:55:17;11.30;99.90
23873;DHT22;42884;50.718;4.630;2024-01-30T04:57:46;11.30;99.90
23873;DHT22;42884;50.718;4.630;2024-01-30T05:00:12;11.30;99.90
23873;DHT22;42884;50.718;4.630;2024-01-30T05:02:38;11.40;99.90
23873;DHT22;42884;50.718;4.630;2024-01-30T05:05:03;11.30;99.90
23873;DHT22;42884;50.718;4.630;2024-01-30T05:07:29;11.30;99.90
23873;DHT22;42884;50.718;4.630;2024-01-30T05:09:55;11.30;99.90
23873;DHT22;42884;50.718;4.630;2024-01-30T05:12:20;11.40;99.90
23873;DHT22;42884;50.718;4.630;2024-01-30T05:14:46;11.40;99.90
23873;DHT22;42884;50.718;4.630;2024-01-30T05:17:12;11.40;99.90
23873;DHT22;42884;50.718;4.630;2024-01-30T05:19:38;11.30;99.90
23873;DHT22;42884;50.718;4.630;2024-01-30T05:22:04;11.30;99.90
23873;DHT22;42884;50.718;4.630;2024-01-30T05:24:29;11.30;99.90
23873;DHT22;42884;50.718;4.630;2024-01-30T05:26:55;11.40;99.90
23873;DHT22;42884;50.718;4.630;2024-01-30T05:29:20;11.40;99.90
23873;DHT22;42884;50.718;4.630;2024-01-30T05:31:46;11.40;99.90
23873;DHT22;42884;50.718;4.630;2024-01-30T05:34:12;11.40;99.90
23873;DHT22;42884;50.718;4.630;2024-01-30T05:36:37;11.30;99.90
23873;DHT22;42884;50.718;4.630;2024-01-30T05:39:03;11.20;99.90
23873;DHT22;42884;50.718;4.630;2024-01-30T05:41:29;11.20;99.90
23873;DHT22;42884;50.718;4.630;2024-01-30T05:43:54;11.20;99.90
23873;DHT22;42884;50.718;4.630;2024-01-30T05:46:20;11.10;99.90
23873;DHT22;42884;50.718;4.630;2024-01-30T05:48:45;11.10;99.90
23873;DHT22;42884;50.718;4.630;2024-01-30T05:51:11;11.10;99.90
23873;DHT22;42884;50.718;4.630;2024-01-30T05:53:37;11.10;99.90
23873;DHT22;42884;50.718;4.630;2024-01-30T05:56:03;11.10;99.90
23873;DHT22;42884;50.718;4.630;2024-01-30T05:58:28;11.20;99.90
23873;DHT22;42884;50.718;4.630;2024-01-30T06:00:54;11.20;99.90
23873;DHT22;42884;50.718;4.630;2024-01-30T06:03:20;11.30;99.90
23873;DHT22;42884;50.718;4.630;2024-01-30T06:05:45;11.30;99.90
23873;DHT22;42884;50.718;4.630;2024-01-30T06:08:11;11.40;99.90
23873;DHT22;42884;50.718;4.630;2024-01-30T06:10:37;11.30;99.90
23873;DHT22;42884;50.718;4.630;2024-01-30T06:13:02;11.40;99.90
23873;DHT22;42884;50.718;4.630;2024-01-30T06:15:28;11.40;99.90
23873;DHT22;42884;50.718;4.630;2024-01-30T06:17:55;11.40;99.90
23873;DHT22;42884;50.718;4.630;2024-01-30T06:20:20;11.40;99.90
23873;DHT22;42884;50.718;4.630;2024-01-30T06:22:46;11.30;99.90
23873;DHT22;42884;50.718;4.630;2024-01-30T06:25:12;11.30;99.90
23873;DHT22;42884;50.718;4.630;2024-01-30T06:27:37;11.30;99.90
23873;DHT22;42884;50.718;4.630;2024-01-30T06:30:04;11.30;99.90
23873;DHT22;42884;50.718;4.630;2024-01-30T06:32:29;11.40;99.90
23873;DHT22;42884;50.718;4.630;2024-01-30T06:35:00;11.30;99.90
23873;DHT22;42884;50.718;4.630;2024-01-30T06:37:25;11.40;99.90
23873;DHT22;42884;50.718;4.630;2024-01-30T06:39:51;11.40;99.90
23873;DHT22;42884;50.718;4.630;2024-01-30T06:42:17;11.40;99.90
23873;DHT22;42884;50.718;4.630;2024-01-30T06:44:43;11.40;99.90
23873;DHT22;42884;50.718;4.630;2024-01-30T06:47:09;11.40;99.90
23873;DHT22;42884;50.718;4.630;2024-01-30T06:49:35;11.40;99.90
23873;DHT22;42884;50.718;4.630;2024-01-30T06:52:06;11.40;99.90
23873;DHT22;42884;50.718;4.630;2024-01-30T06:54:34;11.50;99.90
23873;DHT22;42884;50.718;4.630;2024-01-30T06:57:00;11.60;99.90
23873;DHT22;42884;50.718;4.630;2024-01-30T06:59:25;11.60;99.90
23873;DHT22;42884;50.718;4.630;2024-01-30T07:01:51;11.60;99.90
23873;DHT22;42884;50.718;4.630;2024-01-30T07:04:16;11.50;99.90
23873;DHT22;42884;50.718;4.630;2024-01-30T07:06:43;11.50;99.90
23873;DHT22;42884;50.718;4.630;2024-01-30T07:09:09;11.40;99.90
23873;DHT22;42884;50.718;4.630;2024-01-30T07:11:34;11.40;99.90
23873;DHT22;42884;50.718;4.630;2024-01-30T07:14:00;11.40;99.90
23873;DHT22;42884;50.718;4.630;2024-01-30T07:16:29;11.40;99.90
23873;DHT22;42884;50.718;4.630;2024-01-30T07:18:54;11.40;99.90
23873;DHT22;42884;50.718;4.630;2024-01-30T07:21:21;11.40;99.90
23873;DHT22;42884;50.718;4.630;2024-01-30T07:23:50;11.30;99.90
23873;DHT22;42884;50.718;4.630;2024-01-30T07:26:16;11.40;99.90
23873;DHT22;42884;50.718;4.630;2024-01-30T07:28:41;11.20;99.90
23873;DHT22;42884;50.718;4.630;2024-01-30T07:31:08;11.40;99.90
23873;DHT22;42884;50.718;4.630;2024-01-30T07:33:33;11.40;99.90
23873;DHT22;42884;50.718;4.630;2024-01-30T07:35:59;11.50;99.90
23873;DHT22;42884;50.718;4.630;2024-01-30T07:38:25;11.50;99.90
23873;DHT22;42884;50.718;4.630;2024-01-30T07:40:50;11.40;99.90
23873;DHT22;42884;50.718;4.630;2024-01-30T07:43:16;11.30;99.90
23873;DHT22;42884;50.718;4.630;2024-01-30T07:45:41;11.30;99.90
23873;DHT22;42884;50.718;4.630;2024-01-30T07:48:07;11.40;99.90
23873;DHT22;42884;50.718;4.630;2024-01-30T07:50:33;11.40;99.90
23873;DHT22;42884;50.718;4.630;2024-01-30T07:52:59;11.50;99.90
23873;DHT22;42884;50.718;4.630;2024-01-30T07:55:25;11.50;99.90
23873;DHT22;42884;50.718;4.630;2024-01-30T07:57:56;11.50;99.90
23873;DHT22;42884;50.718;4.630;2024-01-30T08:00:21;11.50;99.90
23873;DHT22;42884;50.718;4.630;2024-01-30T08:02:47;11.50;99.90
23873;DHT22;42884;50.718;4.630;2024-01-30T08:05:13;11.70;99.90
23873;DHT22;42884;50.718;4.630;2024-01-30T08:07:43;11.60;99.90
23873;DHT22;42884;50.718;4.630;2024-01-30T08:10:09;11.70;99.90
23873;DHT22;42884;50.718;4.630;2024-01-30T08:12:35;11.70;99.90
23873;DHT22;42884;50.718;4.630;2024-01-30T08:15:01;11.60;99.90
23873;DHT22;42884;50.718;4.630;2024-01-30T08:17:26;11.70;99.90
23873;DHT22;42884;50.718;4.630;2024-01-30T08:19:52;11.70;99.90
23873;DHT22;42884;50.718;4.630;2024-01-30T08:22:17;11.80;99.90
23873;DHT22;42884;50.718;4.630;2024-01-30T08:24:43;11.80;99.90
23873;DHT22;42884;50.718;4.630;2024-01-30T08:27:09;11.80;99.90
23873;DHT22;42884;50.718;4.630;2024-01-30T08:29:35;11.90;99.90
23873;DHT22;42884;50.718;4.630;2024-01-30T08:32:01;11.90;99.90
23873;DHT22;42884;50.718;4.630;2024-01-30T08:34:26;12.00;99.90
23873;DHT22;42884;50.718;4.630;2024-01-30T08:36:52;11.90;99.90
23873;DHT22;42884;50.718;4.630;2024-01-30T08:39:18;11.80;99.90
23873;DHT22;42884;50.718;4.630;2024-01-30T08:41:43;11.90;99.90
23873;DHT22;42884;50.718;4.630;2024-01-30T08:44:09;11.90;99.90
23873;DHT22;42884;50.718;4.630;2024-01-30T08:46:36;11.90;99.90
23873;DHT22;42884;50.718;4.630;2024-01-30T08:49:02;11.80;99.90
23873;DHT22;42884;50.718;4.630;2024-01-30T08:51:29;11.90;99.90
23873;DHT22;42884;50.718;4.630;2024-01-30T08:53:55;11.90;99.90
23873;DHT22;42884;50.718;4.630;2024-01-30T08:56:20;11.90;99.90
23873;DHT22;42884;50.718;4.630;2024-01-30T08:58:46;12.00;99.90
23873;DHT22;42884;50.718;4.630;2024-01-30T09:01:12;12.10;99.90
23873;DHT22;42884;50.718;4.630;2024-01-30T09:03:40;12.00;99.90
23873;DHT22;42884;50.718;4.630;2024-01-30T09:06:08;12.00;99.90
23873;DHT22;42884;50.718;4.630;2024-01-30T09:08:34;12.10;99.90
23873;DHT22;42884;50.718;4.630;2024-01-30T09:11:00;12.10;99.90
23873;DHT22;42884;50.718;4.630;2024-01-30T09:13:26;12.10;99.90
23873;DHT22;42884;50.718;4.630;2024-01-30T09:15:51;12.10;99.90
23873;DHT22;42884;50.718;4.630;2024-01-30T09:18:18;12.20;99.90
23873;DHT22;42884;50.718;4.630;2024-01-30T09:20:46;12.20;99.90
23873;DHT22;42884;50.718;4.630;2024-01-30T09:23:12;12.30;99.90
23873;DHT22;42884;50.718;4.630;2024-01-30T09:25:38;12.20;99.90
23873;DHT22;42884;50.718;4.630;2024-01-30T09:28:04;12.20;99.90
23873;DHT22;42884;50.718;4.630;2024-01-30T09:30:30;12.30;99.90
23873;DHT22;42884;50.718;4.630;2024-01-30T09:32:55;12.40;99.90
23873;DHT22;42884;50.718;4.630;2024-01-30T09:35:21;12.40;99.90
23873;DHT22;42884;50.718;4.630;2024-01-30T09:37:46;12.30;99.90
23873;DHT22;42884;50.718;4.630;2024-01-30T09:40:13;12.40;99.90
23873;DHT22;42884;50.718;4.630;2024-01-30T09:42:39;12.40;99.90
23873;DHT22;42884;50.718;4.630;2024-01-30T09:45:05;12.40;99.90
23873;DHT22;42884;50.718;4.630;2024-01-30T09:47:32;12.50;99.90
23873;DHT22;42884;50.718;4.630;2024-01-30T09:49:58;12.40;99.90
23873;DHT22;42884;50.718;4.630;2024-01-30T09:52:23;12.50;99.90
23873;DHT22;42884;50.718;4.630;2024-01-30T09:54:49;12.50;99.90
23873;DHT22;42884;50.718;4.630;2024-01-30T09:57:16;12.60;99.90
23873;DHT22;42884;50.718;4.630;2024-01-30T09:59:42;12.60;99.90
23873;DHT22;42884;50.718;4.630;2024-01-30T10:02:09;12.70;99.90
23873;DHT22;42884;50.718;4.630;2024-01-30T10:04:37;12.70;99.90
23873;DHT22;42884;50.718;4.630;2024-01-30T10:07:03;12.50;99.90
23873;DHT22;42884;50.718;4.630;2024-01-30T10:09:31;12.60;99.90
23873;DHT22;42884;50.718;4.630;2024-01-30T10:11:57;12.50;99.90
23873;DHT22;42884;50.718;4.630;2024-01-30T10:14:28;12.50;99.90
23873;DHT22;42884;50.718;4.630;2024-01-30T10:16:55;12.50;99.90
23873;DHT22;42884;50.718;4.630;2024-01-30T10:19:20;12.60;99.90
23873;DHT22;42884;50.718;4.630;2024-01-30T10:21:46;12.60;99.90
23873;DHT22;42884;50.718;4.630;2024-01-30T10:24:14;12.60;99.90
23873;DHT22;42884;50.718;4.630;2024-01-30T10:26:43;12.50;99.90
23873;DHT22;42884;50.718;4.630;2024-01-30T10:29:09;12.50;99.90
23873;DHT22;42884;50.718;4.630;2024-01-30T10:31:34;12.50;99.90
23873;DHT22;42884;50.718;4.630;2024-01-30T10:34:00;12.60;99.90
23873;DHT22;42884;50.718;4.630;2024-01-30T10:36:29;12.60;99.90
23873;DHT22;42884;50.718;4.630;2024-01-30T10:38:55;12.70;99.90
23873;DHT22;42884;50.718;4.630;2024-01-30T10:41:27;12.50;99.90
23873;DHT22;42884;50.718;4.630;2024-01-30T10:44:03;12.60;99.90
23873;DHT22;42884;50.718;4.630;2024-01-30T10:46:33;12.50;99.90
23873;DHT22;42884;50.718;4.630;2024-01-30T10:49:04;12.60;99.90
23873;DHT22;42884;50.718;4.630;2024-01-30T10:51:32;12.60;99.90
23873;DHT22;42884;50.718;4.630;2024-01-30T10:53:59;12.70;99.90
23873;DHT22;42884;50.718;4.630;2024-01-30T10:56:25;12.70;99.90
23873;DHT22;42884;50.718;4.630;2024-01-30T10:58:51;12.50;99.90
23873;DHT22;42884;50.718;4.630;2024-01-30T11:01:21;12.50;99.90
23873;DHT22;42884;50.718;4.630;2024-01-30T11:03:53;12.30;99.90
23873;DHT22;42884;50.718;4.630;2024-01-30T11:06:25;12.20;99.90
23873;DHT22;42884;50.718;4.630;2024-01-30T11:09:02;12.10;99.90
23873;DHT22;42884;50.718;4.630;2024-01-30T11:11:56;12.20;99.90
23873;DHT22;42884;50.718;4.630;2024-01-30T11:14:23;12.20;99.90
23873;DHT22;42884;50.718;4.630;2024-01-30T11:16:52;12.30;99.90
23873;DHT22;42884;50.718;4.630;2024-01-30T11:19:27;12.10;99.90
23873;DHT22;42884;50.718;4.630;2024-01-30T11:21:59;12.10;99.90
23873;DHT22;42884;50.718;4.630;2024-01-30T11:24:28;12.10;99.90
23873;DHT22;42884;50.718;4.630;2024-01-30T11:26:56;12.10;99.90
23873;DHT22;42884;50.718;4.630;2024-01-30T11:29:24;12.30;99.90
23873;DHT22;42884;50.718;4.630;2024-01-30T11:34:48;12.30;99.90
23873;DHT22;42884;50.718;4.630;2024-01-30T11:37:31;12.40;99.90
23873;DHT22;42884;50.718;4.630;2024-01-30T11:39:57;12.50;99.90
23873;DHT22;42884;50.718;4.630;2024-01-30T11:42:24;12.30;99.90
23873;DHT22;42884;50.718;4.630;2024-01-30T11:44:52;12.30;99.90
23873;DHT22;42884;50.718;4.630;2024-01-30T11:47:22;12.10;99.90
23873;DHT22;42884;50.718;4.630;2024-01-30T11:49:47;11.90;99.90
23873;DHT22;42884;50.718;4.630;2024-01-30T11:52:16;11.80;99.90
23873;DHT22;42884;50.718;4.630;2024-01-30T11:54:53;11.80;99.90
23873;DHT22;42884;50.718;4.630;2024-01-30T11:57:19;12.00;99.90
23873;DHT22;42884;50.718;4.630;2024-01-30T11:59:45;12.10;99.90
23873;DHT22;42884;50.718;4.630;2024-01-30T12:02:16;12.10;99.90
23873;DHT22;42884;50.718;4.630;2024-01-30T12:04:45;12.20;99.90
23873;DHT22;42884;50.718;4.630;2024-01-30T12:07:11;12.20;99.90
23873;DHT22;42884;50.718;4.630;2024-01-30T12:09:36;12.20;99.90
23873;DHT22;42884;50.718;4.630;2024-01-30T12:12:02;12.20;99.90
23873;DHT22;42884;50.718;4.630;2024-01-30T12:14:28;12.10;99.90
23873;DHT22;42884;50.718;4.630;2024-01-30T12:16:54;12.10;99.90
23873;DHT22;42884;50.718;4.630;2024-01-30T12:19:23;12.10;99.90
23873;DHT22;42884;50.718;4.630;2024-01-30T12:22:10;12.10;99.90
23873;DHT22;42884;50.718;4.630;2024-01-30T12:24:35;12.00;99.90
23873;DHT22;42884;50.718;4.630;2024-01-30T12:27:00;12.00;99.90
23873;DHT22;42884;50.718;4.630;2024-01-30T12:29:26;12.10;99.90
23873;DHT22;42884;50.718;4.630;2024-01-30T12:31:54;12.10;99.90
23873;DHT22;42884;50.718;4.630;2024-01-30T12:34:20;12.00;99.90
23873;DHT22;42884;50.718;4.630;2024-01-30T12:36:49;12.00;99.90
23873;DHT22;42884;50.718;4.630;2024-01-30T12:39:15;12.00;99.90
23873;DHT22;42884;50.718;4.630;2024-01-30T12:41:43;12.10;99.90
23873;DHT22;42884;50.718;4.630;2024-01-30T12:44:09;12.10;99.90
23873;DHT22;42884;50.718;4.630;2024-01-30T12:46:37;12.00;99.90
23873;DHT22;42884;50.718;4.630;2024-01-30T12:49:04;12.00;99.90
23873;DHT22;42884;50.718;4.630;2024-01-30T12:51:30;12.00;99.90
23873;DHT22;42884;50.718;4.630;2024-01-30T12:53:57;12.00;99.90
23873;DHT22;42884;50.718;4.630;2024-01-30T12:56:23;11.80;99.90
23873;DHT22;42884;50.718;4.630;2024-01-30T12:58:49;12.00;99.90
23873;DHT22;42884;50.718;4.630;2024-01-30T13:01:14;12.00;99.90
23873;DHT22;42884;50.718;4.630;2024-01-30T13:03:40;12.20;99.90
23873;DHT22;42884;50.718;4.630;2024-01-30T13:06:06;12.20;99.90
23873;DHT22;42884;50.718;4.630;2024-01-30T13:08:31;12.30;99.90
23873;DHT22;42884;50.718;4.630;2024-01-30T13:10:57;12.30;99.90
23873;DHT22;42884;50.718;4.630;2024-01-30T13:13:22;12.20;99.90
23873;DHT22;42884;50.718;4.630;2024-01-30T13:15:49;12.10;99.90
23873;DHT22;42884;50.718;4.630;2024-01-30T13:18:14;12.10;99.90
23873;DHT22;42884;50.718;4.630;2024-01-30T13:20:40;11.90;99.90
23873;DHT22;42884;50.718;4.630;2024-01-30T13:23:05;12.00;99.90
23873;DHT22;42884;50.718;4.630;2024-01-30T13:25:34;12.00;99.90
23873;DHT22;42884;50.718;4.630;2024-01-30T13:27:59;11.80;99.90
23873;DHT22;42884;50.718;4.630;2024-01-30T13:30:25;11.80;99.90
23873;DHT22;42884;50.718;4.630;2024-01-30T13:32:50;11.80;99.90
23873;DHT22;42884;50.718;4.630;2024-01-30T13:35:16;11.70;99.90
23873;DHT22;42884;50.718;4.630;2024-01-30T13:37:42;12.60;99.90
23873;DHT22;42884;50.718;4.630;2024-01-30T13:40:07;14.00;99.90
23873;DHT22;42884;50.718;4.630;2024-01-30T13:42:37;15.50;99.90
23873;DHT22;42884;50.718;4.630;2024-01-30T13:45:05;16.40;99.90
23873;DHT22;42884;50.718;4.630;2024-01-30T13:47:31;16.30;99.90
23873;DHT22;42884;50.718;4.630;2024-01-30T13:49:59;15.50;99.90
23873;DHT22;42884;50.718;4.630;2024-01-30T13:52:25;14.80;99.90
23873;DHT22;42884;50.718;4.630;2024-01-30T13:54:53;14.20;99.90
23873;DHT22;42884;50.718;4.630;2024-01-30T13:57:18;14.10;99.90
23873;DHT22;42884;50.718;4.630;2024-01-30T13:59:44;14.00;99.90
23873;DHT22;42884;50.718;4.630;2024-01-30T14:02:10;14.40;99.90
23873;DHT22;42884;50.718;4.630;2024-01-30T14:04:37;14.80;99.90
23873;DHT22;42884;50.718;4.630;2024-01-30T14:07:10;15.00;99.90
23873;DHT22;42884;50.718;4.630;2024-01-30T14:09:36;14.80;99.90
23873;DHT22;42884;50.718;4.630;2024-01-30T14:12:01;14.30;99.90
23873;DHT22;42884;50.718;4.630;2024-01-30T14:14:27;13.90;99.90
23873;DHT22;42884;50.718;4.630;2024-01-30T14:16:53;13.70;99.90
23873;DHT22;42884;50.718;4.630;2024-01-30T14:19:24;13.40;99.90
23873;DHT22;42884;50.718;4.630;2024-01-30T14:21:50;13.10;99.90
23873;DHT22;42884;50.718;4.630;2024-01-30T14:24:23;13.30;99.90
23873;DHT22;42884;50.718;4.630;2024-01-30T14:26:49;13.60;99.90
23873;DHT22;42884;50.718;4.630;2024-01-30T14:29:14;14.50;99.90
23873;DHT22;42884;50.718;4.630;2024-01-30T14:31:40;15.70;99.90
23873;DHT22;42884;50.718;4.630;2024-01-30T14:34:06;16.00;99.90
23873;DHT22;42884;50.718;4.630;2024-01-30T14:36:31;15.60;99.90
23873;DHT22;42884;50.718;4.630;2024-01-30T14:38:58;15.00;99.90
23873;DHT22;42884;50.718;4.630;2024-01-30T14:41:23;14.10;99.90
23873;DHT22;42884;50.718;4.630;2024-01-30T14:43:49;13.90;99.90
23873;DHT22;42884;50.718;4.630;2024-01-30T14:46:14;13.60;99.90
23873;DHT22;42884;50.718;4.630;2024-01-30T14:48:40;13.20;99.90
23873;DHT22;42884;50.718;4.630;2024-01-30T14:51:06;13.10;99.90
23873;DHT22;42884;50.718;4.630;2024-01-30T14:53:31;12.90;99.90
23873;DHT22;42884;50.718;4.630;2024-01-30T14:55:59;12.70;99.90
23873;DHT22;42884;50.718;4.630;2024-01-30T14:58:28;12.70;99.90
23873;DHT22;42884;50.718;4.630;2024-01-30T15:00:55;12.50;99.90
23873;DHT22;42884;50.718;4.630;2024-01-30T15:03:21;12.50;99.90
23873;DHT22;42884;50.718;4.630;2024-01-30T15:05:47;12.40;99.90
23873;DHT22;42884;50.718;4.630;2024-01-30T15:08:15;12.20;99.90
23873;DHT22;42884;50.718;4.630;2024-01-30T15:10:47;12.00;99.90
23873;DHT22;42884;50.718;4.630;2024-01-30T15:13:12;11.90;99.90
23873;DHT22;42884;50.718;4.630;2024-01-30T15:15:38;11.90;99.90
23873;DHT22;42884;50.718;4.630;2024-01-30T15:18:04;11.90;99.90
23873;DHT22;42884;50.718;4.630;2024-01-30T15:20:30;11.90;99.90
23873;DHT22;42884;50.718;4.630;2024-01-30T15:22:57;11.90;99.90
23873;DHT22;42884;50.718;4.630;2024-01-30T15:25:22;11.80;99.90
23873;DHT22;42884;50.718;4.630;2024-01-30T15:27:48;11.90;99.90